sensor_id;sensor_type;location;lat;lon;timestamp;pressure;altitude;pressure_sealevel;temperature;humidity
28289;BME280;15558;50.874;6.964;2022-08-26T00:00:47;100849.16;;;27.91;42.53
28289;BME280;15558;50.874;6.964;2022-08-26T00:03:14;100860.69;;;27.91;42.12
28289;BME280;15558;50.874;6.964;2022-08-26T00:05:42;100864.84;;;27.90;42.16
28289;BME280;15558;50.874;6.964;2022-08-26T00:08:10;100855.34;;;27.89;42.46
28289;BME280;15558;50.874;6.964;2022-08-26T00:10:37;100873.91;;;27.85;42.77
28289;BME280;15558;50.874;6.964;2022-08-26T00:13:04;100875.13;;;27.81;42.99
28289;BME280;15558;50.874;6.964;2022-08-26T00:15:31;100874.72;;;27.79;42.83
28289;BME280;15558;50.874;6.964;2022-08-26T00:17:57;100874.72;;;27.72;43.11
28289;BME280;15558;50.874;6.964;2022-08-26T00:20:26;100882.13;;;27.66;43.42
28289;BME280;15558;50.874;6.964;2022-08-26T00:22:52;100887.88;;;27.59;43.44
28289;BME280;15558;50.874;6.964;2022-08-26T00:25:18;100886.22;;;27.58;43.77
28289;BME280;15558;50.874;6.964;2022-08-26T00:27:45;100882.91;;;27.56;43.99
28289;BME280;15558;50.874;6.964;2022-08-26T00:30:18;100891.16;;;27.47;44.54
28289;BME280;15558;50.874;6.964;2022-08-26T00:32:44;100887.06;;;27.48;44.68
28289;BME280;15558;50.874;6.964;2022-08-26T00:35:10;100890.75;;;27.42;45.54
28289;BME280;15558;50.874;6.964;2022-08-26T00:37:39;100885.78;;;27.42;45.97
28289;BME280;15558;50.874;6.964;2022-08-26T00:40:09;100891.16;;;27.40;46.54
28289;BME280;15558;50.874;6.964;2022-08-26T00:42:36;100889.44;;;27.39;46.83
28289;BME280;15558;50.874;6.964;2022-08-26T00:45:02;100891.91;;;27.37;47.64
28289;BME280;15558;50.874;6.964;2022-08-26T00:47:44;100886.94;;;27.31;48.56
28289;BME280;15558;50.874;6.964;2022-08-26T00:50:11;100887.81;;;27.31;48.99
28289;BME280;15558;50.874;6.964;2022-08-26T00:52:38;100894.38;;;27.28;49.47
28289;BME280;15558;50.874;6.964;2022-08-26T00:55:11;100890.22;;;27.22;50.45
28289;BME280;15558;50.874;6.964;2022-08-26T00:57:38;100902.19;;;27.24;50.48
28289;BME280;15558;50.874;6.964;2022-08-26T01:00:09;100900.13;;;27.21;50.75
28289;BME280;15558;50.874;6.964;2022-08-26T01:02:36;100897.22;;;27.18;50.83
28289;BME280;15558;50.874;6.964;2022-08-26T01:05:04;100897.63;;;27.16;51.38
28289;BME280;15558;50.874;6.964;2022-08-26T01:07:33;100905.00;;;27.07;52.21
28289;BME280;15558;50.874;6.964;2022-08-26T01:10:01;100910.78;;;27.11;52.18
28289;BME280;15558;50.874;6.964;2022-08-26T01:12:30;100906.69;;;27.15;52.35
28289;BME280;15558;50.874;6.964;2022-08-26T01:14:59;100912.38;;;27.01;53.55
28289;BME280;15558;50.874;6.964;2022-08-26T01:17:25;100919.38;;;27.04;53.24
28289;BME280;15558;50.874;6.964;2022-08-26T01:19:57;100912.00;;;27.03;53.35
28289;BME280;15558;50.874;6.964;2022-08-26T01:25:01;100926.34;;;26.96;54.59
28289;BME280;15558;50.874;6.964;2022-08-26T01:27:28;100927.19;;;26.96;54.34
28289;BME280;15558;50.874;6.964;2022-08-26T01:29:57;100925.13;;;26.97;54.55
28289;BME280;15558;50.874;6.964;2022-08-26T01:32:23;100923.09;;;27.01;54.74
28289;BME280;15558;50.874;6.964;2022-08-26T01:34:50;100929.25;;;26.99;55.12
28289;BME280;15558;50.874;6.964;2022-08-26T01:37:21;100929.22;;;26.96;55.62
28289;BME280;15558;50.874;6.964;2022-08-26T01:39:53;100932.13;;;26.92;55.82
28289;BME280;15558;50.874;6.964;2022-08-26T01:42:21;100939.44;;;26.83;56.69
28289;BME280;15558;50.874;6.964;2022-08-26T01:44:51;100944.44;;;26.86;56.19
28289;BME280;15558;50.874;6.964;2022-08-26T01:47:19;100949.38;;;26.89;56.37
28289;BME280;15558;50.874;6.964;2022-08-26T01:49:49;100950.59;;;26.84;56.31
28289;BME280;15558;50.874;6.964;2022-08-26T01:52:21;100939.47;;;26.80;56.93
28289;BME280;15558;50.874;6.964;2022-08-26T01:54:48;100957.56;;;26.80;57.07
28289;BME280;15558;50.874;6.964;2022-08-26T01:57:15;100952.97;;;26.76;57.15
28289;BME280;15558;50.874;6.964;2022-08-26T01:59:43;100958.28;;;26.70;57.25
28289;BME280;15558;50.874;6.964;2022-08-26T02:02:09;100954.59;;;26.70;57.69
28289;BME280;15558;50.874;6.964;2022-08-26T02:04:38;100959.09;;;26.71;57.31
28289;BME280;15558;50.874;6.964;2022-08-26T02:07:08;100966.09;;;26.70;57.71
28289;BME280;15558;50.874;6.964;2022-08-26T02:09:39;100965.66;;;26.64;57.73
28289;BME280;15558;50.874;6.964;2022-08-26T02:12:06;100965.66;;;26.64;57.84
28289;BME280;15558;50.874;6.964;2022-08-26T02:14:35;100964.81;;;26.64;58.17
28289;BME280;15558;50.874;6.964;2022-08-26T02:17:02;100974.28;;;26.61;58.07
28289;BME280;15558;50.874;6.964;2022-08-26T02:19:31;100977.94;;;26.58;58.35
28289;BME280;15558;50.874;6.964;2022-08-26T02:21:59;100973.00;;;26.58;58.19
28289;BME280;15558;50.874;6.964;2022-08-26T02:24:29;100968.47;;;26.57;58.39
28289;BME280;15558;50.874;6.964;2022-08-26T02:27:10;100969.25;;;26.51;58.82
28289;BME280;15558;50.874;6.964;2022-08-26T02:29:40;100969.25;;;26.51;58.67
28289;BME280;15558;50.874;6.964;2022-08-26T02:32:08;100962.25;;;26.48;58.47
28289;BME280;15558;50.874;6.964;2022-08-26T02:34:35;100964.28;;;26.48;58.95
28289;BME280;15558;50.874;6.964;2022-08-26T02:37:05;100966.72;;;26.43;58.98
28289;BME280;15558;50.874;6.964;2022-08-26T02:39:32;100970.81;;;26.42;59.00
28289;BME280;15558;50.874;6.964;2022-08-26T02:41:59;100971.59;;;26.35;59.25
28289;BME280;15558;50.874;6.964;2022-08-26T02:44:26;100983.53;;;26.37;59.48
28289;BME280;15558;50.874;6.964;2022-08-26T02:46:52;100980.63;;;26.34;59.27
28289;BME280;15558;50.874;6.964;2022-08-26T02:49:20;100974.84;;;26.30;59.55
28289;BME280;15558;50.874;6.964;2022-08-26T02:51:46;100974.84;;;26.30;59.34
28289;BME280;15558;50.874;6.964;2022-08-26T02:54:14;100972.75;;;26.27;59.68
28289;BME280;15558;50.874;6.964;2022-08-26T02:56:41;100976.50;;;26.28;59.59
28289;BME280;15558;50.874;6.964;2022-08-26T02:59:07;100973.19;;;26.26;59.52
28289;BME280;15558;50.874;6.964;2022-08-26T03:01:34;100964.53;;;26.26;59.80
28289;BME280;15558;50.874;6.964;2022-08-26T03:04:03;100968.63;;;26.25;59.99
28289;BME280;15558;50.874;6.964;2022-08-26T03:06:29;100965.34;;;26.26;59.63
28289;BME280;15558;50.874;6.964;2022-08-26T03:08:55;100963.69;;;26.22;59.72
28289;BME280;15558;50.874;6.964;2022-08-26T03:11:22;100976.41;;;26.21;60.11
28289;BME280;15558;50.874;6.964;2022-08-26T03:13:49;100970.66;;;26.21;60.08
28289;BME280;15558;50.874;6.964;2022-08-26T03:16:15;100974.78;;;26.23;60.13
28289;BME280;15558;50.874;6.964;2022-08-26T03:18:42;100972.63;;;26.17;60.55
28289;BME280;15558;50.874;6.964;2022-08-26T03:21:11;100973.06;;;26.15;60.37
28289;BME280;15558;50.874;6.964;2022-08-26T03:23:39;100967.34;;;26.19;60.62
28289;BME280;15558;50.874;6.964;2022-08-26T03:26:07;100969.22;;;26.05;61.29
28289;BME280;15558;50.874;6.964;2022-08-26T03:28:33;100970.44;;;26.00;61.61
28289;BME280;15558;50.874;6.964;2022-08-26T03:30:59;100966.34;;;26.01;61.05
28289;BME280;15558;50.874;6.964;2022-08-26T03:33:25;100961.78;;;26.00;61.34
28289;BME280;15558;50.874;6.964;2022-08-26T03:35:52;100960.59;;;26.05;61.10
28289;BME280;15558;50.874;6.964;2022-08-26T03:38:20;100965.53;;;26.04;61.50
28289;BME280;15558;50.874;6.964;2022-08-26T03:40:47;100965.16;;;26.09;61.24
28289;BME280;15558;50.874;6.964;2022-08-26T03:43:14;100960.25;;;26.13;61.00
28289;BME280;15558;50.874;6.964;2022-08-26T03:45:41;100965.19;;;26.12;61.25
28289;BME280;15558;50.874;6.964;2022-08-26T03:48:08;100963.13;;;26.09;61.68
28289;BME280;15558;50.874;6.964;2022-08-26T03:50:34;100968.91;;;26.13;61.12
28289;BME280;15558;50.874;6.964;2022-08-26T03:53:00;100974.25;;;26.14;61.41
28289;BME280;15558;50.874;6.964;2022-08-26T03:55:28;100979.66;;;26.19;60.74
28289;BME280;15558;50.874;6.964;2022-08-26T03:57:57;100975.09;;;26.15;60.88
28289;BME280;15558;50.874;6.964;2022-08-26T04:00:23;100975.09;;;26.15;61.45
28289;BME280;15558;50.874;6.964;2022-08-26T04:02:49;100972.31;;;26.22;60.81
28289;BME280;15558;50.874;6.964;2022-08-26T04:05:17;100982.97;;;26.18;61.03
28289;BME280;15558;50.874;6.964;2022-08-26T04:07:45;100973.09;;;26.19;61.37
28289;BME280;15558;50.874;6.964;2022-08-26T04:10:13;100978.03;;;26.18;61.28
28289;BME280;15558;50.874;6.964;2022-08-26T04:12:39;100981.72;;;26.19;61.00
28289;BME280;15558;50.874;6.964;2022-08-26T04:15:10;100973.91;;;26.19;61.73
28289;BME280;15558;50.874;6.964;2022-08-26T04:17:37;100984.16;;;26.17;61.20
28289;BME280;15558;50.874;6.964;2022-08-26T04:20:04;100980.09;;;26.18;61.25
28289;BME280;15558;50.874;6.964;2022-08-26T04:22:30;100975.84;;;26.08;62.07
28289;BME280;15558;50.874;6.964;2022-08-26T04:24:56;100968.84;;;26.06;61.72
28289;BME280;15558;50.874;6.964;2022-08-26T04:27:22;100976.66;;;26.09;61.43
28289;BME280;15558;50.874;6.964;2022-08-26T04:29:48;100977.03;;;26.04;61.83
28289;BME280;15558;50.874;6.964;2022-08-26T04:32:14;100978.63;;;25.98;62.07
28289;BME280;15558;50.874;6.964;2022-08-26T04:34:41;100978.63;;;25.98;62.19
28289;BME280;15558;50.874;6.964;2022-08-26T04:37:07;100975.78;;;26.02;61.96
28289;BME280;15558;50.874;6.964;2022-08-26T04:39:33;100972.53;;;26.03;62.00
28289;BME280;15558;50.874;6.964;2022-08-26T04:41:59;100977.03;;;26.04;61.71
28289;BME280;15558;50.874;6.964;2022-08-26T04:44:28;100980.78;;;26.08;61.52
28289;BME280;15558;50.874;6.964;2022-08-26T04:46:55;100987.00;;;26.13;61.26
28289;BME280;15558;50.874;6.964;2022-08-26T04:49:21;100989.41;;;26.08;61.38
28289;BME280;15558;50.874;6.964;2022-08-26T04:51:47;100989.88;;;26.13;61.57
28289;BME280;15558;50.874;6.964;2022-08-26T04:54:17;100993.09;;;26.05;61.55
28289;BME280;15558;50.874;6.964;2022-08-26T04:56:45;100996.50;;;26.17;61.03
28289;BME280;15558;50.874;6.964;2022-08-26T04:59:13;100997.38;;;26.18;60.95
28289;BME280;15558;50.874;6.964;2022-08-26T05:01:47;100999.88;;;26.23;61.20
28289;BME280;15558;50.874;6.964;2022-08-26T05:04:13;100992.47;;;26.22;61.07
28289;BME280;15558;50.874;6.964;2022-08-26T05:06:40;100997.03;;;26.30;60.97
28289;BME280;15558;50.874;6.964;2022-08-26T05:09:06;100997.91;;;26.34;60.92
28289;BME280;15558;50.874;6.964;2022-08-26T05:11:32;100999.13;;;26.33;61.02
28289;BME280;15558;50.874;6.964;2022-08-26T05:13:58;100997.47;;;26.32;60.52
28289;BME280;15558;50.874;6.964;2022-08-26T05:16:24;100998.31;;;26.32;60.50
28289;BME280;15558;50.874;6.964;2022-08-26T05:18:50;101004.84;;;26.26;61.04
28289;BME280;15558;50.874;6.964;2022-08-26T05:21:25;100999.91;;;26.30;61.07
28289;BME280;15558;50.874;6.964;2022-08-26T05:23:51;100999.09;;;26.26;60.79
28289;BME280;15558;50.874;6.964;2022-08-26T05:26:26;101001.13;;;26.25;61.24
28289;BME280;15558;50.874;6.964;2022-08-26T05:28:52;101000.66;;;26.20;60.92
28289;BME280;15558;50.874;6.964;2022-08-26T05:31:21;100994.94;;;26.23;60.77
28289;BME280;15558;50.874;6.964;2022-08-26T05:33:48;100997.38;;;26.21;61.02
28289;BME280;15558;50.874;6.964;2022-08-26T05:36:21;101007.16;;;26.13;61.45
28289;BME280;15558;50.874;6.964;2022-08-26T05:38:47;101002.28;;;26.17;61.07
28289;BME280;15558;50.874;6.964;2022-08-26T05:41:22;101006.44;;;26.20;61.06
28289;BME280;15558;50.874;6.964;2022-08-26T05:43:50;101005.22;;;26.24;60.63
28289;BME280;15558;50.874;6.964;2022-08-26T05:46:16;101006.44;;;26.23;61.34
28289;BME280;15558;50.874;6.964;2022-08-26T05:48:42;101006.44;;;26.23;61.31
28289;BME280;15558;50.874;6.964;2022-08-26T05:51:09;101013.81;;;26.21;61.33
28289;BME280;15558;50.874;6.964;2022-08-26T05:53:37;101015.88;;;26.20;61.08
28289;BME280;15558;50.874;6.964;2022-08-26T05:56:05;101011.75;;;26.18;61.91
28289;BME280;15558;50.874;6.964;2022-08-26T05:58:33;101012.09;;;26.16;61.69
28289;BME280;15558;50.874;6.964;2022-08-26T06:01:15;101016.63;;;26.14;61.52
28289;BME280;15558;50.874;6.964;2022-08-26T06:03:44;101021.13;;;26.15;61.50
28289;BME280;15558;50.874;6.964;2022-08-26T06:06:15;101027.31;;;26.13;61.50
28289;BME280;15558;50.874;6.964;2022-08-26T06:08:41;101020.31;;;26.14;61.67
28289;BME280;15558;50.874;6.964;2022-08-26T06:11:10;101026.16;;;26.21;61.42
28289;BME280;15558;50.874;6.964;2022-08-26T06:13:37;101029.38;;;26.16;61.61
28289;BME280;15558;50.874;6.964;2022-08-26T06:16:08;101022.81;;;26.16;61.59
28289;BME280;15558;50.874;6.964;2022-08-26T06:18:38;101027.31;;;26.17;61.60
28289;BME280;15558;50.874;6.964;2022-08-26T06:23:38;101026.16;;;26.18;61.48
28289;BME280;15558;50.874;6.964;2022-08-26T06:26:23;101025.69;;;26.16;61.51
28289;BME280;15558;50.874;6.964;2022-08-26T06:28:49;101027.75;;;26.15;61.28
28289;BME280;15558;50.874;6.964;2022-08-26T06:31:15;101035.09;;;26.13;61.48
28289;BME280;15558;50.874;6.964;2022-08-26T06:33:42;101035.53;;;26.15;61.41
28289;BME280;15558;50.874;6.964;2022-08-26T06:36:14;101020.69;;;26.13;61.62
28289;BME280;15558;50.874;6.964;2022-08-26T06:38:41;101033.88;;;26.14;61.60
28289;BME280;15558;50.874;6.964;2022-08-26T06:41:07;101031.00;;;26.14;61.53
28289;BME280;15558;50.874;6.964;2022-08-26T06:43:35;101031.06;;;26.17;61.45
28289;BME280;15558;50.874;6.964;2022-08-26T06:46:04;101033.06;;;26.17;61.11
28289;BME280;15558;50.874;6.964;2022-08-26T06:48:31;101036.38;;;26.15;61.71
28289;BME280;15558;50.874;6.964;2022-08-26T06:51:02;101032.34;;;26.20;61.65
28289;BME280;15558;50.874;6.964;2022-08-26T06:53:28;101035.13;;;26.16;61.83
28289;BME280;15558;50.874;6.964;2022-08-26T06:55:54;101038.09;;;26.20;61.38
28289;BME280;15558;50.874;6.964;2022-08-26T06:58:20;101042.66;;;26.24;61.35
28289;BME280;15558;50.874;6.964;2022-08-26T07:00:46;101032.75;;;26.22;61.50
28289;BME280;15558;50.874;6.964;2022-08-26T07:03:12;101047.53;;;26.20;61.10
28289;BME280;15558;50.874;6.964;2022-08-26T07:05:38;101048.81;;;26.23;61.06
28289;BME280;15558;50.874;6.964;2022-08-26T07:08:04;101037.31;;;26.26;61.04
28289;BME280;15558;50.874;6.964;2022-08-26T07:10:30;101037.31;;;26.26;60.92
28289;BME280;15558;50.874;6.964;2022-08-26T07:12:56;101042.72;;;26.31;60.38
28289;BME280;15558;50.874;6.964;2022-08-26T07:15:22;101043.53;;;26.32;60.90
28289;BME280;15558;50.874;6.964;2022-08-26T07:17:48;101044.78;;;26.31;61.23
28289;BME280;15558;50.874;6.964;2022-08-26T07:20:14;101041.09;;;26.34;61.04
28289;BME280;15558;50.874;6.964;2022-08-26T07:22:40;101042.38;;;26.36;61.00
28289;BME280;15558;50.874;6.964;2022-08-26T07:25:07;101053.47;;;26.38;60.76
28289;BME280;15558;50.874;6.964;2022-08-26T07:27:34;101047.75;;;26.41;60.63
28289;BME280;15558;50.874;6.964;2022-08-26T07:30:01;101052.69;;;26.41;60.73
28289;BME280;15558;50.874;6.964;2022-08-26T07:32:27;101055.63;;;26.47;60.75
28289;BME280;15558;50.874;6.964;2022-08-26T07:34:53;101059.31;;;26.48;60.25
28289;BME280;15558;50.874;6.964;2022-08-26T07:37:19;101048.66;;;26.48;60.59
28289;BME280;15558;50.874;6.964;2022-08-26T07:39:45;101052.31;;;26.45;60.56
28289;BME280;15558;50.874;6.964;2022-08-26T07:42:14;101047.78;;;26.45;60.52
28289;BME280;15558;50.874;6.964;2022-08-26T07:44:40;101060.94;;;26.45;60.25
28289;BME280;15558;50.874;6.964;2022-08-26T07:47:07;101069.97;;;26.44;59.92
28289;BME280;15558;50.874;6.964;2022-08-26T07:49:33;101067.94;;;26.45;60.52
28289;BME280;15558;50.874;6.964;2022-08-26T07:51:59;101068.34;;;26.43;60.30
28289;BME280;15558;50.874;6.964;2022-08-26T07:54:26;101071.59;;;26.42;60.15
28289;BME280;15558;50.874;6.964;2022-08-26T07:56:52;101061.75;;;26.43;59.99
28289;BME280;15558;50.874;6.964;2022-08-26T07:59:18;101073.22;;;26.39;60.51
28289;BME280;15558;50.874;6.964;2022-08-26T08:01:45;101066.66;;;26.39;60.56
28289;BME280;15558;50.874;6.964;2022-08-26T08:04:15;101070.34;;;26.39;60.83
28289;BME280;15558;50.874;6.964;2022-08-26T08:06:42;101070.41;;;26.46;60.56
28289;BME280;15558;50.874;6.964;2022-08-26T08:09:09;101078.22;;;26.45;60.41
28289;BME280;15558;50.874;6.964;2022-08-26T08:11:35;101069.19;;;26.47;60.44
28289;BME280;15558;50.874;6.964;2022-08-26T08:14:02;101075.78;;;26.47;60.42
28289;BME280;15558;50.874;6.964;2022-08-26T08:16:29;101072.50;;;26.49;60.29
28289;BME280;15558;50.874;6.964;2022-08-26T08:18:55;101067.59;;;26.53;60.04
28289;BME280;15558;50.874;6.964;2022-08-26T08:21:23;101082.34;;;26.48;59.89
28289;BME280;15558;50.874;6.964;2022-08-26T08:23:51;101068.72;;;26.38;59.79
28289;BME280;15558;50.874;6.964;2022-08-26T08:26:17;101072.78;;;26.37;59.60
28289;BME280;15558;50.874;6.964;2022-08-26T08:28:43;101082.69;;;26.40;59.84
28289;BME280;15558;50.874;6.964;2022-08-26T08:31:21;101077.75;;;26.37;60.07
28289;BME280;15558;50.874;6.964;2022-08-26T08:33:47;101088.00;;;26.34;60.04
28289;BME280;15558;50.874;6.964;2022-08-26T08:36:13;101081.81;;;26.36;60.35
28289;BME280;15558;50.874;6.964;2022-08-26T08:38:42;101091.25;;;26.33;60.35
28289;BME280;15558;50.874;6.964;2022-08-26T08:41:39;101087.94;;;26.31;60.36
28289;BME280;15558;50.874;6.964;2022-08-26T08:44:15;101081.38;;;26.30;60.14
28289;BME280;15558;50.874;6.964;2022-08-26T08:46:50;101075.63;;;26.34;60.15
28289;BME280;15558;50.874;6.964;2022-08-26T08:49:17;101083.00;;;26.31;60.04
28289;BME280;15558;50.874;6.964;2022-08-26T08:51:51;101082.56;;;26.26;59.62
28289;BME280;15558;50.874;6.964;2022-08-26T08:54:20;101078.06;;;26.28;59.85
28289;BME280;15558;50.874;6.964;2022-08-26T08:56:51;101081.81;;;26.32;60.35
28289;BME280;15558;50.874;6.964;2022-08-26T08:59:24;101087.19;;;26.37;59.67
28289;BME280;15558;50.874;6.964;2022-08-26T09:07:19;101090.44;;;26.32;60.07
28289;BME280;15558;50.874;6.964;2022-08-26T09:10:21;101084.69;;;26.36;59.41
28289;BME280;15558;50.874;6.964;2022-08-26T09:12:51;101091.69;;;26.35;59.80
28289;BME280;15558;50.874;6.964;2022-08-26T09:15:26;101093.00;;;26.41;59.83
28289;BME280;15558;50.874;6.964;2022-08-26T09:23:16;101097.88;;;26.37;60.35
28289;BME280;15558;50.874;6.964;2022-08-26T09:28:19;101099.63;;;26.45;60.15
28289;BME280;15558;50.874;6.964;2022-08-26T09:30:58;101099.09;;;26.36;60.24
28289;BME280;15558;50.874;6.964;2022-08-26T09:33:29;101093.75;;;26.34;60.45
28289;BME280;15558;50.874;6.964;2022-08-26T09:36:36;101101.53;;;26.30;60.67
28289;BME280;15558;50.874;6.964;2022-08-26T09:39:49;101103.16;;;26.31;60.25
28289;BME280;15558;50.874;6.964;2022-08-26T09:45:04;101093.00;;;26.41;60.22
28289;BME280;15558;50.874;6.964;2022-08-26T09:47:51;101088.88;;;26.42;59.72
28289;BME280;15558;50.874;6.964;2022-08-26T09:50:32;101102.19;;;26.56;59.34
28289;BME280;15558;50.874;6.964;2022-08-26T09:55:38;101096.41;;;26.53;59.56
28289;BME280;15558;50.874;6.964;2022-08-26T09:58:07;101104.28;;;26.59;59.24
28289;BME280;15558;50.874;6.964;2022-08-26T10:00:42;101100.19;;;26.64;59.34
28289;BME280;15558;50.874;6.964;2022-08-26T10:03:24;101094.63;;;26.38;58.52
28289;BME280;15558;50.874;6.964;2022-08-26T10:10:50;101094.81;;;26.19;58.96
28289;BME280;15558;50.874;6.964;2022-08-26T10:13:26;101094.25;;;25.74;60.44
28289;BME280;15558;50.874;6.964;2022-08-26T10:16:04;101103.16;;;25.95;60.00
28289;BME280;15558;50.874;6.964;2022-08-26T10:18:32;101102.56;;;26.15;59.36
28289;BME280;15558;50.874;6.964;2022-08-26T10:21:08;101105.13;;;26.20;59.08
28289;BME280;15558;50.874;6.964;2022-08-26T10:23:49;101100.13;;;26.17;59.38
28289;BME280;15558;50.874;6.964;2022-08-26T10:26:21;101095.94;;;26.11;59.17
28289;BME280;15558;50.874;6.964;2022-08-26T10:29:10;101100.00;;;26.07;59.30
28289;BME280;15558;50.874;6.964;2022-08-26T10:31:41;101097.53;;;26.06;59.67
28289;BME280;15558;50.874;6.964;2022-08-26T10:34:09;101095.69;;;26.23;59.54
28289;BME280;15558;50.874;6.964;2022-08-26T10:39:29;101089.75;;;26.45;59.42
28289;BME280;15558;50.874;6.964;2022-08-26T10:42:02;101082.81;;;26.53;59.56
28289;BME280;15558;50.874;6.964;2022-08-26T10:44:33;101086.63;;;26.64;58.62
28289;BME280;15558;50.874;6.964;2022-08-26T10:47:11;101075.97;;;26.68;58.21
28289;BME280;15558;50.874;6.964;2022-08-26T10:49:40;101076.81;;;26.72;58.65
28289;BME280;15558;50.874;6.964;2022-08-26T10:52:27;101079.31;;;26.77;58.14
28289;BME280;15558;50.874;6.964;2022-08-26T10:55:44;101078.88;;;26.75;57.97
28289;BME280;15558;50.874;6.964;2022-08-26T11:01:29;101079.31;;;26.77;57.53
28289;BME280;15558;50.874;6.964;2022-08-26T11:06:46;101067.09;;;26.87;57.41
28289;BME280;15558;50.874;6.964;2022-08-26T11:09:51;101069.22;;;26.97;57.17
28289;BME280;15558;50.874;6.964;2022-08-26T11:22:55;101073.09;;;27.25;56.67
28289;BME280;15558;50.874;6.964;2022-08-26T11:28:37;101051.72;;;27.33;55.77
28289;BME280;15558;50.874;6.964;2022-08-26T11:31:08;101062.44;;;27.32;56.10
28289;BME280;15558;50.874;6.964;2022-08-26T11:33:59;101059.16;;;27.34;55.28
28289;BME280;15558;50.874;6.964;2022-08-26T11:36:54;101058.31;;;27.30;55.86
28289;BME280;15558;50.874;6.964;2022-08-26T11:39:30;101064.06;;;27.26;55.14
28289;BME280;15558;50.874;6.964;2022-08-26T11:44:41;101048.88;;;27.36;56.55
28289;BME280;15558;50.874;6.964;2022-08-26T11:47:12;101050.19;;;27.46;55.89
28289;BME280;15558;50.874;6.964;2022-08-26T11:49:39;101044.41;;;27.46;55.56
28289;BME280;15558;50.874;6.964;2022-08-26T11:52:20;101051.88;;;27.50;55.14
28289;BME280;15558;50.874;6.964;2022-08-26T11:55:08;101053.53;;;27.58;55.28
28289;BME280;15558;50.874;6.964;2022-08-26T11:57:41;101054.81;;;27.60;55.05
28289;BME280;15558;50.874;6.964;2022-08-26T12:00:16;101051.13;;;27.67;54.74
28289;BME280;15558;50.874;6.964;2022-08-26T12:02:42;101056.50;;;27.75;54.95
28289;BME280;15558;50.874;6.964;2022-08-26T12:05:12;101058.56;;;27.78;54.33
28289;BME280;15558;50.874;6.964;2022-08-26T12:07:41;101050.34;;;27.84;53.83
28289;BME280;15558;50.874;6.964;2022-08-26T12:10:09;101044.59;;;27.87;53.98
28289;BME280;15558;50.874;6.964;2022-08-26T12:12:36;101049.50;;;27.76;53.32
28289;BME280;15558;50.874;6.964;2022-08-26T12:17:33;101056.50;;;27.79;55.42
28289;BME280;15558;50.874;6.964;2022-08-26T12:19:59;101048.69;;;27.83;55.29
28289;BME280;15558;50.874;6.964;2022-08-26T12:22:28;101053.25;;;27.84;55.48
28289;BME280;15558;50.874;6.964;2022-08-26T12:25:00;101051.97;;;27.74;55.45
28289;BME280;15558;50.874;6.964;2022-08-26T12:27:32;101056.94;;;27.84;55.13
28289;BME280;15558;50.874;6.964;2022-08-26T12:32:30;101054.03;;;27.74;55.14
28289;BME280;15558;50.874;6.964;2022-08-26T12:34:56;101054.44;;;27.76;55.07
28289;BME280;15558;50.874;6.964;2022-08-26T12:37:24;101061.03;;;27.76;55.25
28289;BME280;15558;50.874;6.964;2022-08-26T12:39:51;101051.56;;;27.76;55.59
28289;BME280;15558;50.874;6.964;2022-08-26T12:44:48;101057.31;;;27.76;54.91
28289;BME280;15558;50.874;6.964;2022-08-26T12:49:41;101051.59;;;27.86;55.18
28289;BME280;15558;50.874;6.964;2022-08-26T12:52:24;101047.91;;;27.92;54.99
28289;BME280;15558;50.874;6.964;2022-08-26T12:55:00;101042.16;;;27.99;55.36
28289;BME280;15558;50.874;6.964;2022-08-26T12:57:30;101044.25;;;28.02;55.35
28289;BME280;15558;50.874;6.964;2022-08-26T13:00:28;101040.56;;;28.02;55.25
28289;BME280;15558;50.874;6.964;2022-08-26T13:02:54;101043.00;;;28.03;54.89
28289;BME280;15558;50.874;6.964;2022-08-26T13:05:26;101048.34;;;27.98;55.14
28289;BME280;15558;50.874;6.964;2022-08-26T13:08:14;101039.72;;;28.05;55.14
28289;BME280;15558;50.874;6.964;2022-08-26T13:10:44;101034.72;;;27.95;54.83
28289;BME280;15558;50.874;6.964;2022-08-26T13:13:11;101032.69;;;27.99;54.95
28289;BME280;15558;50.874;6.964;2022-08-26T13:15:37;101035.19;;;28.00;55.57
28289;BME280;15558;50.874;6.964;2022-08-26T13:18:03;101045.06;;;27.99;55.00
28289;BME280;15558;50.874;6.964;2022-08-26T13:20:30;101038.44;;;27.95;54.99
28289;BME280;15558;50.874;6.964;2022-08-26T13:22:57;101044.63;;;27.97;55.09
28289;BME280;15558;50.874;6.964;2022-08-26T13:25:23;101035.56;;;27.95;54.48
28289;BME280;15558;50.874;6.964;2022-08-26T13:27:49;101026.09;;;27.98;54.86
28289;BME280;15558;50.874;6.964;2022-08-26T13:30:15;101030.63;;;27.99;54.50
28289;BME280;15558;50.874;6.964;2022-08-26T13:32:41;101023.56;;;27.97;54.75
28289;BME280;15558;50.874;6.964;2022-08-26T13:35:07;101028.13;;;27.98;54.65
28289;BME280;15558;50.874;6.964;2022-08-26T13:37:33;101016.59;;;27.98;54.61
28289;BME280;15558;50.874;6.964;2022-08-26T13:39:59;101024.00;;;27.95;55.00
28289;BME280;15558;50.874;6.964;2022-08-26T13:42:25;101024.81;;;27.96;54.75
28289;BME280;15558;50.874;6.964;2022-08-26T13:44:51;101022.38;;;28.01;54.47
28289;BME280;15558;50.874;6.964;2022-08-26T13:47:22;101021.53;;;27.97;54.27
28289;BME280;15558;50.874;6.964;2022-08-26T13:49:50;101024.00;;;27.95;54.88
28289;BME280;15558;50.874;6.964;2022-08-26T13:52:16;101023.22;;;27.98;54.46
28289;BME280;15558;50.874;6.964;2022-08-26T13:54:42;101016.56;;;27.88;54.49
28289;BME280;15558;50.874;6.964;2022-08-26T13:57:08;101011.63;;;27.95;54.21
28289;BME280;15558;50.874;6.964;2022-08-26T13:59:34;101023.16;;;27.88;54.47
28289;BME280;15558;50.874;6.964;2022-08-26T14:02:00;101021.94;;;27.96;54.55
28289;BME280;15558;50.874;6.964;2022-08-26T14:04:28;101018.25;;;27.95;53.88
28289;BME280;15558;50.874;6.964;2022-08-26T14:06:54;101024.00;;;27.95;54.23